Time;durP1;ratioP1;P1;durP2;ratioP2;P2;SDS_P1;SDS_P2;PMS_P1;PMS_P2;Temp;Humidity;BMP_temperature;BMP_pressure;BME280_temperature;BME280_humidity;BME280_pressure;Samples;Min_cycle;Max_cycle;Signal;HPM_P1;HPM_P2
2023/03/13 00:01:14;;;;;;;43.70;8.38;;;11.30;99.90;;;;;;5045750;28;20080;-45
2023/03/13 00:03:39;;;;;;;33.88;8.25;;;11.30;99.90;;;;;;5036680;28;20049;-41
2023/03/13 00:06:06;;;;;;;50.70;10.02;;;11.40;99.90;;;;;;5025262;28;20059;-47
2023/03/13 00:08:32;;;;;;;29.50;8.02;;;11.30;99.90;;;;;;5038886;28;20021;-50
2023/03/13 00:11:01;;;;;;;40.70;7.47;;;11.40;99.90;;;;;;5023683;28;20021;-44
2023/03/13 00:13:26;;;;;;;43.83;8.52;;;11.40;99.90;;;;;;5039357;28;20065;-45
2023/03/13 00:16:02;;;;;;;36.53;7.72;;;11.40;99.90;;;;;;5043852;28;20033;-42
2023/03/13 00:18:28;;;;;;;20.63;6.30;;;11.40;99.90;;;;;;5034879;28;20033;-41
2023/03/13 00:21:06;;;;;;;47.17;8.32;;;11.40;99.90;;;;;;5043943;28;20025;-46
2023/03/13 00:23:33;;;;;;;37.08;7.72;;;11.40;99.90;;;;;;5050131;28;20522;-45
2023/03/13 00:26:07;;;;;;;43.53;7.50;;;11.40;99.90;;;;;;5052938;28;20462;-41
2023/03/13 00:28:35;;;;;;;46.88;8.68;;;11.50;99.90;;;;;;5053087;28;20119;-45
2023/03/13 00:31:09;;;;;;;34.67;7.25;;;11.50;99.90;;;;;;5028230;28;20028;-44
2023/03/13 00:33:37;;;;;;;40.30;8.45;;;11.50;99.90;;;;;;5052815;28;20516;-40
2023/03/13 00:36:10;;;;;;;32.97;7.20;;;11.50;99.90;;;;;;5052905;28;20075;-45
2023/03/13 00:38:36;;;;;;;29.15;6.82;;;11.40;99.90;;;;;;5052907;28;20149;-40
2023/03/13 00:41:08;;;;;;;38.88;7.80;;;11.40;99.90;;;;;;5044317;28;20224;-40
2023/03/13 00:43:34;;;;;;;32.92;7.63;;;11.50;99.90;;;;;;5052495;28;20025;-40
2023/03/13 00:46:00;;;;;;;41.78;7.53;;;11.40;99.90;;;;;;5052164;28;20378;-40
2023/03/13 00:48:26;;;;;;;38.17;7.43;;;11.50;99.90;;;;;;5052375;28;20389;-40
2023/03/13 00:50:52;;;;;;;38.83;7.18;;;11.50;99.90;;;;;;5044737;28;20029;-40
2023/03/13 00:53:18;;;;;;;32.97;7.28;;;11.50;99.90;;;;;;5050543;28;20504;-39
2023/03/13 00:56:08;;;;;;;34.63;7.45;;;11.50;99.90;;;;;;5033675;28;20025;-40
2023/03/13 00:58:36;;;;;;;33.22;6.95;;;11.50;99.90;;;;;;5052438;28;20017;-47
2023/03/13 01:01:15;;;;;;;34.60;6.50;;;11.50;99.90;;;;;;5043186;28;20064;-50
2023/03/13 01:03:43;;;;;;;39.60;7.90;;;11.50;99.90;;;;;;5052160;28;20036;-40
2023/03/13 01:06:13;;;;;;;34.58;7.28;;;11.50;99.90;;;;;;5052474;28;20495;-42
2023/03/13 01:08:39;;;;;;;;;;;11.50;99.90;;;;;;5052820;28;20033;-47
2023/03/13 01:11:08;;;;;;;35.50;6.75;;;11.50;99.90;;;;;;5042907;28;19935;-43
2023/03/13 01:13:34;;;;;;;32.27;6.60;;;11.50;99.90;;;;;;5049448;28;20064;-40
2023/03/13 01:16:10;;;;;;;23.02;6.28;;;11.40;99.90;;;;;;5052404;28;20622;-43
2023/03/13 01:18:38;;;;;;;29.65;6.82;;;11.50;99.90;;;;;;5052039;28;20029;-43
2023/03/13 01:21:04;;;;;;;39.53;7.65;;;11.40;99.90;;;;;;5051582;28;20051;-42
2023/03/13 01:23:30;;;;;;;35.45;7.85;;;11.40;99.90;;;;;;5051986;28;20029;-51
2023/03/13 01:25:56;;;;;;;37.05;7.28;;;11.50;99.90;;;;;;5051864;28;20037;-43
2023/03/13 01:28:23;;;;;;;35.33;7.07;;;11.50;99.90;;;;;;5052157;28;20024;-46
2023/03/13 01:30:49;;;;;;;33.97;7.20;;;11.50;99.90;;;;;;5046004;28;20033;-40
2023/03/13 01:33:14;;;;;;;36.35;6.95;;;11.50;99.90;;;;;;5042505;28;20065;-41
2023/03/13 01:35:40;;;;;;;31.88;7.22;;;11.40;99.90;;;;;;5044794;28;20025;-41
2023/03/13 01:38:06;;;;;;;30.63;7.03;;;11.40;99.90;;;;;;5051647;28;20053;-52
2023/03/13 01:40:38;;;;;;;38.47;7.13;;;11.40;99.90;;;;;;5047490;28;20024;-43
2023/03/13 01:43:29;;;;;;;28.60;7.93;;;11.30;99.90;;;;;;5049587;28;20017;-45
2023/03/13 01:46:07;;;;;;;34.33;7.90;;;11.40;99.90;;;;;;5051630;28;20079;-44
2023/03/13 01:48:50;;;;;;;30.92;7.88;;;11.40;99.90;;;;;;5051676;28;20041;-45
2023/03/13 01:51:25;;;;;;;29.15;6.60;;;11.40;99.90;;;;;;5042855;28;20032;-43
2023/03/13 01:54:03;;;;;;;23.63;6.53;;;11.40;99.90;;;;;;5051685;28;20032;-53
2023/03/13 01:56:35;;;;;;;26.92;6.53;;;11.50;99.90;;;;;;5051084;28;20108;-43
2023/03/13 01:59:02;;;;;;;30.77;7.32;;;11.60;99.90;;;;;;5051031;28;20033;-45
2023/03/13 02:01:28;;;;;;;28.13;5.93;;;11.60;99.90;;;;;;5041076;28;20037;-47
2023/03/13 02:03:56;;;;;;;26.10;6.40;;;11.60;99.90;;;;;;5051302;28;20025;-46
2023/03/13 02:06:22;;;;;;;27.15;5.80;;;11.70;99.90;;;;;;5051093;28;20037;-47
2023/03/13 02:09:05;;;;;;;34.13;6.45;;;11.60;99.90;;;;;;5051143;28;20021;-47
2023/03/13 02:11:46;;;;;;;29.65;6.70;;;11.70;99.90;;;;;;5039397;28;20025;-43
2023/03/13 02:14:12;;;;;;;33.97;6.53;;;11.70;99.90;;;;;;5050551;28;20068;-50
2023/03/13 02:16:38;;;;;;;29.40;6.20;;;11.70;99.90;;;;;;5050886;28;20025;-41
2023/03/13 02:19:18;;;;;;;28.10;6.05;;;11.70;99.90;;;;;;5050929;28;20029;-45
2023/03/13 02:22:15;;;;;;;26.90;7.10;;;11.60;99.90;;;;;;5047898;28;20076;-46
2023/03/13 02:24:53;;;;;;;27.52;7.07;;;11.60;99.90;;;;;;5050375;28;20094;-43
2023/03/13 02:27:19;;;;;;;27.08;6.05;;;11.60;99.90;;;;;;5050826;28;20051;-46
2023/03/13 02:29:44;;;;;;;32.83;6.47;;;11.60;99.90;;;;;;5050921;28;20021;-40
2023/03/13 02:32:11;;;;;;;32.42;6.60;;;11.60;99.90;;;;;;5046369;28;20508;-42
2023/03/13 02:34:40;;;;;;;37.83;7.43;;;11.60;99.90;;;;;;5050918;28;20032;-45
2023/03/13 02:37:09;;;;;;;25.02;7.35;;;11.70;99.90;;;;;;5050863;28;20082;-41
2023/03/13 02:39:37;;;;;;;29.55;6.80;;;11.70;99.90;;;;;;5050554;28;20045;-41
2023/03/13 02:42:04;;;;;;;26.38;5.43;;;11.70;99.90;;;;;;5044984;28;20546;-42
2023/03/13 02:44:29;;;;;;;27.30;5.28;;;11.70;99.90;;;;;;5050503;28;20043;-42
2023/03/13 02:46:55;;;;;;;26.42;5.15;;;11.70;99.90;;;;;;5050710;28;20021;-44
2023/03/13 02:49:29;;;;;;;32.22;6.20;;;11.70;99.90;;;;;;5050630;28;20378;-44
2023/03/13 02:52:04;;;;;;;33.72;6.95;;;11.70;99.90;;;;;;5043269;28;20037;-45
2023/03/13 02:54:34;;;;;;;26.13;6.00;;;11.70;99.90;;;;;;5050447;28;20032;-40
2023/03/13 02:57:02;;;;;;;31.80;6.60;;;11.60;99.90;;;;;;5050336;28;20025;-42
2023/03/13 02:59:28;;;;;;;29.00;6.32;;;11.60;99.90;;;;;;5049885;28;20025;-46
2023/03/13 03:01:53;;;;;;;38.38;6.40;;;11.50;99.90;;;;;;5041196;28;20154;-41
2023/03/13 03:04:21;;;;;;;25.00;5.20;;;11.50;99.90;;;;;;5049842;28;20024;-40
2023/03/13 03:06:47;;;;;;;26.33;6.03;;;11.40;99.90;;;;;;5050205;28;20021;-46
2023/03/13 03:09:12;;;;;;;32.38;6.25;;;11.30;99.90;;;;;;5050377;28;20092;-43
2023/03/13 03:11:38;;;;;;;31.75;6.80;;;11.30;99.90;;;;;;5039879;28;20128;-48
2023/03/13 03:14:04;;;;;;;35.08;6.78;;;11.20;99.90;;;;;;5049791;28;20056;-42
2023/03/13 03:16:30;;;;;;;41.92;8.15;;;11.20;99.90;;;;;;5050682;28;20013;-48
2023/03/13 03:18:56;;;;;;;26.10;5.72;;;11.20;99.90;;;;;;5048168;28;20026;-44
2023/03/13 03:21:22;;;;;;;35.85;6.80;;;11.10;99.90;;;;;;5045157;28;20025;-49
2023/03/13 03:23:49;;;;;;;33.88;6.80;;;11.10;99.90;;;;;;5054266;28;20021;-45
2023/03/13 03:26:15;;;;;;;36.95;6.68;;;11.10;99.90;;;;;;5053976;28;20021;-42
2023/03/13 03:28:40;;;;;;;30.45;6.32;;;11.00;99.90;;;;;;5051163;28;20028;-41
2023/03/13 03:31:08;;;;;;;31.13;6.38;;;11.00;99.90;;;;;;5051367;28;20031;-43
2023/03/13 03:33:34;;;;;;;20.48;5.30;;;11.00;99.90;;;;;;5054100;28;20484;-43
2023/03/13 03:36:05;;;;;;;17.50;4.53;;;11.00;99.90;;;;;;5036191;28;20037;-44
2023/03/13 03:38:31;;;;;;;20.23;4.70;;;11.10;99.90;;;;;;5052692;28;20021;-48
2023/03/13 03:40:56;;;;;;;23.65;4.30;;;11.10;99.90;;;;;;5047995;28;20044;-49
2023/03/13 03:43:22;;;;;;;16.83;4.80;;;11.10;99.90;;;;;;5053822;28;20544;-44
2023/03/13 03:45:47;;;;;;;23.55;5.15;;;11.10;99.90;;;;;;5054026;28;20017;-50
2023/03/13 03:48:13;;;;;;;19.33;4.90;;;11.10;99.90;;;;;;5053664;28;20116;-46
2023/03/13 03:50:39;;;;;;;21.35;4.75;;;11.10;99.90;;;;;;5045211;28;20021;-56
2023/03/13 03:53:04;;;;;;;26.75;5.30;;;11.10;99.90;;;;;;5035808;28;20400;-42
2023/03/13 03:55:30;;;;;;;18.02;4.22;;;11.10;99.90;;;;;;5053714;28;20094;-44
2023/03/13 03:57:55;;;;;;;17.95;4.40;;;11.10;99.90;;;;;;5053487;28;20029;-44
2023/03/13 04:00:21;;;;;;;20.38;4.88;;;11.10;99.90;;;;;;5043569;28;20024;-46
2023/03/13 04:02:46;;;;;;;22.35;5.25;;;11.20;99.90;;;;;;5053824;28;20713;-53
2023/03/13 04:05:12;;;;;;;32.08;5.68;;;11.20;99.90;;;;;;5053470;28;20377;-46
2023/03/13 04:07:38;;;;;;;18.63;5.38;;;11.20;99.90;;;;;;5048968;28;20060;-45
2023/03/13 04:10:04;;;;;;;28.85;5.80;;;11.20;99.90;;;;;;5051716;28;20091;-45
2023/03/13 04:12:30;;;;;;;22.40;5.95;;;11.20;99.90;;;;;;5040465;28;20044;-45
2023/03/13 04:14:56;;;;;;;29.98;5.38;;;11.20;99.90;;;;;;5052474;28;20041;-40
2023/03/13 04:17:21;;;;;;;20.25;5.45;;;11.10;99.90;;;;;;5053447;28;20029;-40
2023/03/13 04:19:47;;;;;;;25.52;5.53;;;11.10;99.90;;;;;;5053144;28;20460;-40
2023/03/13 04:22:12;;;;;;;31.13;6.75;;;11.10;99.90;;;;;;5042885;28;20036;-40
2023/03/13 04:24:38;;;;;;;30.35;5.88;;;11.10;99.90;;;;;;5051859;28;20040;-40
2023/03/13 04:27:05;;;;;;;36.35;5.95;;;11.10;99.90;;;;;;5053172;28;20465;-40
2023/03/13 04:29:34;;;;;;;34.65;6.72;;;11.20;99.90;;;;;;5053175;28;20135;-51
2023/03/13 04:32:00;;;;;;;33.00;6.70;;;11.20;99.90;;;;;;5045446;28;20040;-42
2023/03/13 04:34:26;;;;;;;39.88;7.97;;;11.20;99.90;;;;;;5030558;28;20032;-47
2023/03/13 04:36:52;;;;;;;22.42;4.47;;;11.20;99.90;;;;;;5053097;28;20424;-44
2023/03/13 04:39:17;;;;;;;23.48;5.22;;;11.20;99.90;;;;;;5052810;28;20013;-40
2023/03/13 04:41:43;;;;;;;28.67;5.15;;;11.20;99.90;;;;;;5050610;28;20025;-48
2023/03/13 04:44:09;;;;;;;19.67;4.22;;;11.20;99.90;;;;;;5046615;28;20075;-48
2023/03/13 04:46:35;;;;;;;12.73;4.63;;;11.10;99.90;;;;;;5034897;28;20052;-40
2023/03/13 04:49:00;;;;;;;22.52;4.63;;;11.20;99.90;;;;;;5051806;28;20183;-47
2023/03/13 04:51:26;;;;;;;29.10;4.45;;;11.20;99.90;;;;;;5050693;28;20433;-40
2023/03/13 04:53:52;;;;;;;30.40;5.03;;;11.20;99.90;;;;;;5052418;28;20045;-50
2023/03/13 04:56:25;;;;;;;25.02;5.88;;;11.20;99.90;;;;;;5052671;28;20036;-42
2023/03/13 04:58:51;;;;;;;25.23;6.50;;;11.20;99.90;;;;;;5052446;28;20131;-44
2023/03/13 05:01:18;;;;;;;30.75;6.80;;;11.30;99.90;;;;;;5052408;28;20377;-46
2023/03/13 05:03:43;;;;;;;34.92;5.38;;;11.20;99.90;;;;;;5050251;28;20437;-44
2023/03/13 05:06:09;;;;;;;24.48;5.38;;;11.30;99.90;;;;;;5051945;28;20021;-48
2023/03/13 05:08:35;;;;;;;36.08;5.85;;;11.30;99.90;;;;;;5052084;28;20106;-42
2023/03/13 05:11:01;;;;;;;36.00;6.22;;;11.20;99.90;;;;;;5034451;28;20068;-45
2023/03/13 05:13:27;;;;;;;39.00;6.03;;;11.20;99.90;;;;;;5048131;28;20050;-48
2023/03/13 05:15:53;;;;;;;30.30;5.47;;;11.20;99.90;;;;;;5052164;28;20041;-46
2023/03/13 05:18:18;;;;;;;33.83;5.88;;;11.20;99.90;;;;;;5052089;28;20432;-43
2023/03/13 05:20:44;;;;;;;34.15;7.25;;;11.20;99.90;;;;;;5052094;28;20059;-47
2023/03/13 05:23:10;;;;;;;27.75;5.50;;;11.20;99.90;;;;;;5046055;28;20025;-46
2023/03/13 05:25:35;;;;;;;33.42;5.72;;;11.20;99.90;;;;;;5051977;28;20436;-47
2023/03/13 05:28:01;;;;;;;38.03;5.40;;;11.20;99.90;;;;;;5052174;28;20075;-45
2023/03/13 05:30:27;;;;;;;30.25;5.00;;;11.20;99.90;;;;;;5051991;28;20028;-43
2023/03/13 05:32:53;;;;;;;38.78;5.72;;;11.10;99.90;;;;;;5026163;28;20033;-48
2023/03/13 05:35:18;;;;;;;34.88;7.95;;;11.20;99.90;;;;;;5051788;28;20031;-47
2023/03/13 05:37:45;;;;;;;26.55;4.80;;;11.10;99.90;;;;;;5033703;28;20024;-46
2023/03/13 05:40:11;;;;;;;29.73;5.05;;;11.10;99.90;;;;;;5051798;28;20104;-40
2023/03/13 05:42:38;;;;;;;31.42;5.60;;;11.00;99.90;;;;;;5041914;28;20064;-43
2023/03/13 05:45:04;;;;;;;23.00;4.28;;;11.00;99.90;;;;;;5051083;28;20107;-44
2023/03/13 05:47:29;;;;;;;22.38;4.43;;;11.00;99.90;;;;;;5051426;28;20029;-41
2023/03/13 05:49:55;;;;;;;32.17;5.13;;;11.10;99.90;;;;;;5051358;28;20032;-51
2023/03/13 05:52:20;;;;;;;37.95;8.10;;;11.10;99.90;;;;;;5043782;28;20039;-46
2023/03/13 05:54:46;;;;;;;40.10;5.78;;;11.10;99.90;;;;;;5048507;28;20032;-48
2023/03/13 05:57:12;;;;;;;30.70;5.22;;;11.10;99.90;;;;;;5051469;28;20371;-46
2023/03/13 05:59:37;;;;;;;36.65;6.22;;;11.10;99.90;;;;;;5051235;28;20033;-48
2023/03/13 06:02:03;;;;;;;33.60;5.93;;;11.10;99.90;;;;;;5046431;28;20114;-45
2023/03/13 06:04:29;;;;;;;39.60;6.00;;;11.10;99.90;;;;;;5044151;28;20478;-43
2023/03/13 06:06:54;;;;;;;36.70;5.20;;;11.10;99.90;;;;;;5051085;28;20021;-40
2023/03/13 06:09:20;;;;;;;33.75;6.20;;;11.10;99.90;;;;;;5051323;28;20037;-44
2023/03/13 06:11:46;;;;;;;32.35;5.15;;;11.10;99.90;;;;;;5048897;28;20033;-46
2023/03/13 06:14:11;;;;;;;30.80;4.85;;;11.20;99.90;;;;;;5039847;28;20045;-44
2023/03/13 06:16:38;;;;;;;40.00;6.22;;;11.10;99.90;;;;;;5051028;28;20055;-43
2023/03/13 06:19:03;;;;;;;37.28;5.68;;;11.20;99.90;;;;;;5050987;28;20478;-46
2023/03/13 06:21:29;;;;;;;35.85;5.00;;;11.20;99.90;;;;;;5050874;28;20063;-45
2023/03/13 06:23:55;;;;;;;35.17;5.35;;;11.10;99.90;;;;;;5046081;28;20047;-47
2023/03/13 06:26:23;;;;;;;35.90;5.97;;;11.20;99.90;;;;;;5051044;28;20021;-45
2023/03/13 06:28:49;;;;;;;38.15;5.97;;;11.10;99.90;;;;;;5050792;28;20033;-43
2023/03/13 06:31:14;;;;;;;31.85;5.53;;;11.10;99.90;;;;;;5050953;28;20100;-42
2023/03/13 06:33:40;;;;;;;37.55;5.35;;;11.10;99.90;;;;;;5044255;28;20029;-48
2023/03/13 06:36:06;;;;;;;33.88;5.75;;;11.20;99.90;;;;;;5050767;28;20100;-41
2023/03/13 06:38:32;;;;;;;40.72;5.50;;;11.20;99.90;;;;;;5050823;28;20103;-44
2023/03/13 06:40:58;;;;;;;34.03;5.90;;;11.20;99.90;;;;;;5050954;28;20021;-50
2023/03/13 06:43:24;;;;;;;34.22;5.57;;;11.20;99.90;;;;;;5043137;28;20476;-44
2023/03/13 06:45:49;;;;;;;33.58;5.22;;;11.20;99.90;;;;;;5050783;28;20040;-49
2023/03/13 06:48:15;;;;;;;44.47;6.93;;;11.30;99.90;;;;;;5050437;28;20536;-41
2023/03/13 06:50:42;;;;;;;36.58;5.47;;;11.20;99.90;;;;;;5050535;28;20048;-53
2023/03/13 06:53:15;;;;;;;37.55;7.38;;;11.30;99.90;;;;;;5040365;28;20033;-45
2023/03/13 06:55:42;;;;;;;41.08;5.75;;;11.30;99.90;;;;;;5050405;28;20021;-46
2023/03/13 06:58:07;;;;;;;41.67;6.47;;;11.30;99.90;;;;;;5032786;28;20108;-47
2023/03/13 07:00:33;;;;;;;33.53;5.68;;;11.30;99.90;;;;;;5050387;28;20410;-44
2023/03/13 07:02:59;;;;;;;34.20;5.75;;;11.30;99.90;;;;;;5021732;28;20477;-45
2023/03/13 07:05:25;;;;;;;38.50;6.18;;;11.30;99.90;;;;;;5050355;28;20025;-42
2023/03/13 07:07:50;;;;;;;35.47;6.22;;;11.40;99.90;;;;;;5050313;28;20099;-45
2023/03/13 07:10:16;;;;;;;38.20;6.25;;;11.40;99.90;;;;;;5049876;28;20024;-43
2023/03/13 07:12:43;;;;;;;38.25;5.38;;;11.40;99.90;;;;;;5041550;28;20127;-43
2023/03/13 07:15:09;;;;;;;38.47;5.65;;;11.50;99.90;;;;;;5046367;28;20052;-46
2023/03/13 07:17:35;;;;;;;28.17;5.25;;;11.50;99.90;;;;;;5050059;28;20024;-44
2023/03/13 07:20:03;;;;;;;31.25;5.30;;;11.40;99.90;;;;;;5050323;28;20029;-46
2023/03/13 07:22:29;;;;;;;31.38;5.40;;;11.50;99.90;;;;;;5046575;28;20474;-41
2023/03/13 07:24:55;;;;;;;31.40;5.53;;;11.50;99.90;;;;;;5050391;28;20032;-42
2023/03/13 07:27:21;;;;;;;24.67;5.13;;;11.60;99.90;;;;;;5050157;28;20116;-44
2023/03/13 07:29:47;;;;;;;33.67;5.47;;;11.50;99.90;;;;;;5050083;28;20017;-44
2023/03/13 07:32:13;;;;;;;26.67;5.32;;;11.60;99.90;;;;;;5045825;28;20072;-41
2023/03/13 07:34:38;;;;;;;33.72;5.32;;;11.60;99.90;;;;;;5049182;28;20041;-53
2023/03/13 07:37:04;;;;;;;34.58;6.68;;;11.60;99.90;;;;;;5050200;28;20060;-50
2023/03/13 07:39:30;;;;;;;35.05;5.07;;;11.60;99.90;;;;;;5049966;28;20390;-46
2023/03/13 07:41:55;;;;;;;32.10;5.47;;;11.60;99.90;;;;;;5048701;28;20017;-49
2023/03/13 07:44:21;;;;;;;37.42;5.60;;;11.70;99.90;;;;;;5027377;28;20179;-41
2023/03/13 07:46:47;;;;;;;31.08;6.32;;;11.70;99.90;;;;;;5042739;28;20031;-41
2023/03/13 07:49:13;;;;;;;25.65;5.05;;;11.70;99.90;;;;;;5037060;28;20097;-40
2023/03/13 07:51:38;;;;;;;37.38;6.22;;;11.70;99.90;;;;;;5034217;28;20382;-43
2023/03/13 07:54:04;;;;;;;26.90;5.40;;;11.70;99.90;;;;;;5021731;28;20037;-43
2023/03/13 07:56:30;;;;;;;27.35;5.07;;;11.70;99.90;;;;;;5035733;28;20021;-42
2023/03/13 07:58:55;;;;;;;32.40;5.13;;;11.70;99.90;;;;;;5036005;28;20021;-53
2023/03/13 08:01:26;;;;;;;38.97;5.40;;;11.70;99.90;;;;;;5033668;28;20079;-41
2023/03/13 08:03:54;;;;;;;37.88;5.88;;;11.80;99.90;;;;;;5044799;28;20492;-41
2023/03/13 08:06:24;;;;;;;40.42;6.13;;;11.90;99.90;;;;;;5050614;28;20059;-41
2023/03/13 08:08:51;;;;;;;40.83;5.93;;;12.10;99.90;;;;;;5043023;28;20025;-43
2023/03/13 08:11:19;;;;;;;34.40;4.82;;;12.60;99.90;;;;;;5049728;28;20061;-49
2023/03/13 08:13:45;;;;;;;37.35;6.25;;;12.70;99.90;;;;;;5049817;28;20126;-55
2023/03/13 08:16:22;;;;;;;31.85;5.63;;;12.80;99.90;;;;;;5051724;28;20082;-47
2023/03/13 08:18:49;;;;;;;35.38;5.82;;;12.80;99.90;;;;;;5051504;28;20120;-41
2023/03/13 08:21:19;;;;;;;31.60;5.55;;;12.60;99.90;;;;;;5023820;28;20512;-43
2023/03/13 08:23:45;;;;;;;36.65;6.22;;;12.70;99.90;;;;;;5050486;28;20032;-43
2023/03/13 08:26:14;;;;;;;30.20;5.13;;;12.70;99.90;;;;;;5045994;28;20025;-42
2023/03/13 08:28:40;;;;;;;30.00;4.80;;;12.90;99.90;;;;;;5049316;28;20021;-51
2023/03/13 08:31:11;;;;;;;33.15;5.28;;;12.80;99.90;;;;;;5047619;28;20358;-45
2023/03/13 08:33:38;;;;;;;36.22;6.72;;;12.50;99.90;;;;;;5040948;28;20439;-44
2023/03/13 08:36:12;;;;;;;35.03;6.13;;;12.40;99.90;;;;;;5042996;28;20026;-49
2023/03/13 08:38:40;;;;;;;32.95;5.80;;;12.30;99.90;;;;;;5044588;28;20040;-44
2023/03/13 08:41:06;;;;;;;29.80;5.20;;;12.60;99.90;;;;;;5039589;28;20096;-48
2023/03/13 08:43:32;;;;;;;38.35;5.85;;;13.40;99.90;;;;;;5034485;28;20115;-45
2023/03/13 08:45:58;;;;;;;37.83;6.15;;;14.20;99.90;;;;;;5046113;28;20033;-43
2023/03/13 08:48:23;;;;;;;39.25;5.53;;;14.80;99.90;;;;;;5038374;28;20500;-44
2023/03/13 08:51:06;;;;;;;35.40;6.95;;;15.30;99.90;;;;;;5044549;28;20116;-53
2023/03/13 08:53:33;;;;;;;36.30;6.65;;;15.50;99.90;;;;;;5044503;28;20041;-52
2023/03/13 08:55:59;;;;;;;31.02;5.90;;;15.70;99.90;;;;;;5050704;28;20024;-52
2023/03/13 08:58:25;;;;;;;36.15;6.18;;;15.80;99.90;;;;;;5046325;28;20021;-54
2023/03/13 09:00:51;;;;;;;35.88;6.18;;;16.30;99.90;;;;;;5045095;28;20031;-48
2023/03/13 09:03:17;;;;;;;33.50;5.70;;;16.20;99.90;;;;;;5038454;28;20026;-48
2023/03/13 09:05:44;;;;;;;41.50;6.15;;;16.30;99.90;;;;;;5049286;28;20507;-46
2023/03/13 09:08:11;;;;;;;33.38;6.55;;;15.90;99.90;;;;;;5048205;28;20043;-43
2023/03/13 09:10:36;;;;;;;37.88;7.05;;;15.70;99.90;;;;;;5049774;28;20013;-43
2023/03/13 09:13:02;;;;;;;38.85;7.13;;;15.80;99.90;;;;;;5042474;28;20041;-48
2023/03/13 09:15:28;;;;;;;30.48;6.07;;;16.30;99.90;;;;;;5044704;28;20076;-52
2023/03/13 09:17:53;;;;;;;31.85;6.65;;;16.20;99.90;;;;;;5042176;28;20067;-53
2023/03/13 09:20:19;;;;;;;34.83;6.93;;;16.20;99.90;;;;;;5050803;28;20106;-51
2023/03/13 09:22:45;;;;;;;37.60;6.13;;;16.50;99.90;;;;;;5036831;28;20125;-43
2023/03/13 09:25:12;;;;;;;29.67;5.60;;;16.30;99.90;;;;;;5035332;28;20052;-45
2023/03/13 09:27:38;;;;;;;32.72;5.65;;;16.70;99.90;;;;;;5037916;28;20040;-43
2023/03/13 09:30:04;;;;;;;28.80;5.75;;;16.10;99.90;;;;;;5035533;28;20021;-51
2023/03/13 09:32:30;;;;;;;32.03;6.45;;;15.60;99.90;;;;;;5036084;28;20486;-46
2023/03/13 09:34:56;;;;;;;37.88;6.93;;;16.10;99.90;;;;;;5039404;28;20036;-53
2023/03/13 09:37:22;;;;;;;40.15;6.88;;;15.90;99.90;;;;;;5033968;28;20063;-41
2023/03/13 09:39:51;;;;;;;35.50;6.35;;;15.60;99.90;;;;;;5043883;28;20029;-47
2023/03/13 09:42:23;;;;;;;36.05;6.15;;;15.40;99.90;;;;;;5045911;28;20017;-48
2023/03/13 09:44:58;;;;;;;36.83;6.18;;;15.40;99.90;;;;;;5045996;28;20091;-44
2023/03/13 09:47:53;;;;;;;42.88;6.85;;;15.40;99.90;;;;;;5049229;28;20024;-50
2023/03/13 09:50:25;;;;;;;38.53;6.93;;;15.40;99.90;;;;;;5049005;28;20043;-41
2023/03/13 09:52:56;;;;;;;36.40;6.82;;;15.70;99.90;;;;;;5042330;28;20390;-47
2023/03/13 09:55:27;;;;;;;37.00;6.53;;;15.50;99.90;;;;;;5044853;28;20114;-48
2023/03/13 09:58:23;;;;;;;37.78;8.07;;;15.60;99.90;;;;;;5046177;28;20036;-45
2023/03/13 10:01:10;;;;;;;37.10;6.07;;;15.70;99.90;;;;;;5044614;28;20029;-52
2023/03/13 10:03:46;;;;;;;38.13;6.15;;;16.40;99.90;;;;;;5038897;28;20075;-43
2023/03/13 10:06:18;;;;;;;34.08;6.57;;;16.80;99.90;;;;;;5045654;28;20129;-46
2023/03/13 10:08:44;;;;;;;35.22;5.88;;;17.40;99.90;;;;;;5037859;28;20029;-41
2023/03/13 10:11:39;;;;;;;30.92;6.47;;;17.10;99.90;;;;;;5050213;28;20338;-44
2023/03/13 10:14:09;;;;;;;35.20;6.18;;;17.20;99.90;;;;;;5049552;28;20049;-42
2023/03/13 10:16:48;;;;;;;42.28;7.00;;;16.50;99.90;;;;;;5043734;28;20124;-47
2023/03/13 10:19:16;;;;;;;33.37;6.90;;;16.30;99.90;;;;;;5045024;28;20036;-45
2023/03/13 10:21:46;;;;;;;39.85;6.72;;;16.20;99.90;;;;;;5048589;28;20033;-47
2023/03/13 10:24:36;;;;;;;36.50;6.68;;;15.60;99.90;;;;;;5048209;28;20022;-46
2023/03/13 10:27:02;;;;;;;37.03;7.35;;;15.50;99.90;;;;;;5049636;28;20021;-41
2023/03/13 10:29:29;;;;;;;43.10;7.40;;;16.00;99.90;;;;;;5048004;28;20433;-45
2023/03/13 10:32:00;;;;;;;34.20;6.38;;;16.30;99.90;;;;;;5040388;28;20029;-41
2023/03/13 10:34:28;;;;;;;37.38;6.00;;;16.70;99.90;;;;;;5042369;28;20116;-41
2023/03/13 10:36:59;;;;;;;40.20;7.53;;;17.40;99.40;;;;;;5046708;28;20124;-41
2023/03/13 10:39:27;;;;;;;40.15;6.57;;;17.20;98.10;;;;;;5048030;28;20527;-42
2023/03/13 10:42:10;;;;;;;41.30;6.65;;;16.70;98.60;;;;;;5048178;28;20032;-42
2023/03/13 10:44:36;;;;;;;30.10;5.72;;;16.50;99.90;;;;;;5036086;28;20029;-50
2023/03/13 10:47:03;;;;;;;35.30;6.63;;;16.40;99.40;;;;;;5031371;28;20026;-50
2023/03/13 10:49:30;;;;;;;37.67;6.47;;;16.70;99.30;;;;;;5031683;28;20108;-51
2023/03/13 10:51:59;;;;;;;43.13;6.43;;;16.80;98.70;;;;;;5036891;28;20033;-55
2023/03/13 10:54:30;;;;;;;37.83;6.70;;;15.70;99.90;;;;;;5046160;28;20021;-45
2023/03/13 10:57:18;;;;;;;42.58;7.15;;;15.00;99.90;;;;;;5042908;28;20121;-52
2023/03/13 10:59:49;;;;;;;38.03;6.30;;;14.70;99.90;;;;;;5044570;28;20346;-43
2023/03/13 11:02:34;;;;;;;41.78;6.55;;;14.10;99.90;;;;;;5048494;28;20025;-42
2023/03/13 11:05:01;;;;;;;43.85;6.50;;;13.70;99.90;;;;;;5036380;28;20028;-42
2023/03/13 11:07:34;;;;;;;44.08;6.20;;;13.50;99.90;;;;;;5038903;28;20430;-44
2023/03/13 11:10:09;;;;;;;39.50;7.38;;;13.40;99.90;;;;;;5041938;28;20100;-42
2023/03/13 11:12:35;;;;;;;45.10;6.85;;;13.50;99.90;;;;;;5030523;28;20029;-41
2023/03/13 11:15:05;;;;;;;44.45;8.63;;;13.70;99.90;;;;;;5044718;28;20047;-42
2023/03/13 11:17:37;;;;;;;47.40;7.53;;;13.90;99.90;;;;;;5044372;28;20059;-41
2023/03/13 11:20:26;;;;;;;40.92;6.95;;;14.10;99.90;;;;;;5050055;28;20094;-45
2023/03/13 11:23:21;;;;;;;46.17;6.22;;;15.10;99.90;;;;;;5043277;28;20116;-42
2023/03/13 11:26:00;;;;;;;34.83;6.78;;;15.50;99.90;;;;;;5050069;28;20392;-44
2023/03/13 11:28:58;;;;;;;39.83;7.43;;;15.80;99.90;;;;;;5050526;28;20114;-49
2023/03/13 11:31:32;;;;;;;34.15;6.32;;;16.10;99.90;;;;;;5032838;28;20021;-44
2023/03/13 11:34:09;;;;;;;32.30;6.15;;;16.70;99.90;;;;;;5046498;28;20037;-44
2023/03/13 11:36:43;;;;;;;40.45;7.07;;;16.80;99.30;;;;;;5041925;28;20021;-43
2023/03/13 11:39:32;;;;;;;36.78;6.90;;;16.70;99.90;;;;;;5045122;28;20082;-42
2023/03/13 11:42:16;;;;;;;;;;;16.90;99.40;;;;;;5047487;28;20063;-50
2023/03/13 11:44:57;;;;;;;36.45;6.72;;;17.30;98.40;;;;;;5045478;28;19915;-42
2023/03/13 11:47:54;;;;;;;37.38;6.07;;;17.10;97.10;;;;;;5052282;28;20029;-44
2023/03/13 11:51:12;;;;;;;38.80;6.03;;;16.30;98.20;;;;;;5041377;28;20032;-49
2023/03/13 11:53:57;;;;;;;36.08;6.05;;;15.30;99.90;;;;;;5012259;28;20049;-44
2023/03/13 11:56:42;;;;;;;43.08;7.10;;;14.80;99.90;;;;;;5050242;28;20044;-42
2023/03/13 11:59:28;;;;;;;29.05;6.07;;;15.10;99.90;;;;;;5051082;28;20036;-46
2023/03/13 12:02:23;;;;;;;27.85;4.88;;;15.40;99.90;;;;;;5047677;28;20029;-42
2023/03/13 12:04:56;;;;;;;29.40;4.90;;;15.20;99.90;;;;;;5046693;28;20043;-43
2023/03/13 12:07:32;;;;;;;38.80;6.50;;;14.60;99.90;;;;;;5033486;28;20021;-45
2023/03/13 12:10:09;;;;;;;38.78;6.57;;;14.50;99.90;;;;;;5049871;28;20478;-46
2023/03/13 12:12:50;;;;;;;32.13;5.72;;;15.60;99.90;;;;;;5049656;28;20128;-43
2023/03/13 12:15:28;;;;;;;36.58;5.75;;;16.70;99.10;;;;;;5046932;28;20037;-49
2023/03/13 12:18:16;;;;;;;31.00;6.22;;;17.20;95.80;;;;;;5049224;28;20033;-42
2023/03/13 12:21:04;;;;;;;27.35;5.22;;;17.60;95.60;;;;;;5047108;28;20029;-41
2023/03/13 12:23:38;;;;;;;33.30;5.97;;;18.00;93.50;;;;;;5034604;28;20036;-45
2023/03/13 12:26:17;;;;;;;33.13;6.13;;;17.90;93.40;;;;;;5047422;28;20089;-41
2023/03/13 12:28:48;;;;;;;34.83;7.13;;;17.50;93.40;;;;;;5048939;28;20095;-46
2023/03/13 12:31:29;;;;;;;33.65;6.22;;;17.50;95.00;;;;;;5050254;28;20021;-44
2023/03/13 12:34:20;;;;;;;34.88;6.10;;;18.00;93.50;;;;;;5046809;28;20052;-42
2023/03/13 12:37:00;;;;;;;27.88;6.50;;;17.90;93.50;;;;;;5045589;28;20065;-54
2023/03/13 12:39:29;;;;;;;;;;;17.30;93.00;;;;;;5049978;28;20688;-42
2023/03/13 12:42:16;;;;;;;34.63;5.25;;;16.00;95.10;;;;;;5023115;28;19967;-47
2023/03/13 12:44:42;;;;;;;35.72;6.10;;;15.30;97.60;;;;;;5045241;28;20053;-42
2023/03/13 12:47:31;;;;;;;41.45;6.63;;;14.80;98.90;;;;;;5049532;28;20051;-42
2023/03/13 12:50:15;;;;;;;32.88;6.45;;;14.50;99.90;;;;;;5048069;28;20119;-48
2023/03/13 12:52:56;;;;;;;33.25;5.80;;;14.40;99.90;;;;;;5024071;28;20045;-42